Dyce, United Kingdom
Current Conditions -  °F | °C
As of 4:50 PM on Friday 28 Nov 2014 (Local Time) from EGPD Reporting Station
Light Rain Light Rain  
Wind Chill: 44°   Ceiling: 1000
Heat Index: 48°   Visibility: 2.8mi
Dew Point: 48°   Wind: 9mph
Humidity: 100%   Direction: 110°ESE
Pressure: 29.88"   Gusts: NA
Location:  57.25°N, 2.23°W
Report Text: EGPD 281650Z 11008KT 4500 -RADZ SCT004 SCT007 BKN010 09/09 Q1012 BECMG 6000 BKN015
Loading
Personal Weather Stations






























Interactive Weather Map New forecast layout! Learn more

10-Day Weather Forecast

Advertisements
Track Severe Weather on mobile